Time,TemperatureF,DewpointF,PressureIn,WindDirection,WindDirectionDegrees,WindSpeedMPH,WindSpeedGustMPH,Humidity,HourlyPrecipIn,Conditions,Clouds,dailyrainin,SoftwareType,DateUTC
2013-07-15 00:01:00,72.0,72.0,30.09,ESE,104,0.0,4.0,100,99.99,,,-99.99,,2013-07-15 04:01:00,
2013-07-15 00:11:00,72.0,72.0,30.09,ESE,115,2.0,4.0,100,99.99,,,-99.99,,2013-07-15 04:11:00,
2013-07-15 00:22:00,72.0,72.0,30.09,North,0,0.0,0.0,100,99.99,,,-99.99,,2013-07-15 04:22:00,
2013-07-15 00:32:00,72.0,72.0,30.09,North,0,0.0,0.0,100,99.99,,,-99.99,,2013-07-15 04:32:00,
2013-07-15 00:42:00,72.0,72.0,30.09,North,0,0.0,0.0,100,99.99,,,-99.99,,2013-07-15 04:42:00,
2013-07-15 00:53:00,72.0,72.0,30.09,North,0,0.0,0.0,100,99.99,,,-99.99,,2013-07-15 04:53:00,
2013-07-15 01:02:00,72.0,72.0,30.09,North,0,0.0,0.0,100,99.99,,,-99.99,,2013-07-15 05:02:00,
2013-07-15 01:11:00,72.0,72.0,30.10,North,0,0.0,0.0,100,99.99,,,-99.99,,2013-07-15 05:11:00,
2013-07-15 01:22:00,72.0,72.0,30.09,North,0,0.0,0.0,100,99.99,,,-99.99,,2013-07-15 05:22:00,
2013-07-15 01:32:00,72.0,72.0,30.09,North,0,0.0,0.0,100,99.99,,,-99.99,,2013-07-15 05:32:00,
2013-07-15 01:43:00,72.0,72.0,30.09,North,0,0.0,0.0,100,99.99,,,-99.99,,2013-07-15 05:43:00,
2013-07-15 01:53:00,72.0,72.0,30.10,North,0,0.0,0.0,100,99.99,,,-99.99,,2013-07-15 05:53:00,
2013-07-15 02:02:00,72.0,72.0,30.09,North,0,0.0,0.0,100,99.99,,,-99.99,,2013-07-15 06:02:00,
2013-07-15 02:12:00,72.0,72.0,30.09,North,0,0.0,0.0,100,99.99,,,-99.99,,2013-07-15 06:12:00,
2013-07-15 02:22:00,72.0,72.0,30.09,North,0,0.0,0.0,100,99.99,,,-99.99,,2013-07-15 06:22:00,
2013-07-15 02:32:00,72.0,72.0,30.09,North,0,0.0,0.0,100,99.99,,,-99.99,,2013-07-15 06:32:00,
2013-07-15 02:42:00,72.0,72.0,30.09,North,0,0.0,0.0,100,99.99,,,-99.99,,2013-07-15 06:42:00,
2013-07-15 02:53:00,72.0,72.0,30.09,SE,128,1.0,3.0,100,99.99,,,-99.99,,2013-07-15 06:53:00,
2013-07-15 03:01:00,72.0,72.0,30.09,North,0,0.0,0.0,100,99.99,,,-99.99,,2013-07-15 07:01:00,
2013-07-15 03:11:00,72.0,72.0,30.09,North,0,0.0,0.0,100,99.99,,,-99.99,,2013-07-15 07:11:00,
2013-07-15 03:21:00,72.0,72.0,30.08,North,0,0.0,0.0,100,99.99,,,-99.99,,2013-07-15 07:21:00,
2013-07-15 03:33:00,71.0,71.0,30.08,North,0,0.0,0.0,100,99.99,,,-99.99,,2013-07-15 07:33:00,
2013-07-15 03:44:00,71.0,71.0,30.07,North,0,0.0,0.0,100,99.99,,,-99.99,,2013-07-15 07:44:00,
2013-07-15 03:53:00,71.0,71.0,30.07,North,0,0.0,0.0,100,99.99,,,-99.99,,2013-07-15 07:53:00,
2013-07-15 04:01:00,71.0,71.0,30.07,North,0,0.0,0.0,100,99.99,,,-99.99,,2013-07-15 08:01:00,
2013-07-15 04:11:00,71.0,71.0,30.08,North,0,0.0,0.0,100,99.99,,,-99.99,,2013-07-15 08:11:00,
2013-07-15 04:22:00,71.0,71.0,30.08,North,0,0.0,0.0,100,99.99,,,-99.99,,2013-07-15 08:22:00,
2013-07-15 04:32:00,71.0,71.0,30.07,North,0,0.0,0.0,100,99.99,,,-99.99,,2013-07-15 08:32:00,
2013-07-15 04:43:00,71.0,71.0,30.08,North,0,0.0,0.0,100,99.99,,,-99.99,,2013-07-15 08:43:00,
2013-07-15 04:53:00,71.0,71.0,30.07,North,0,0.0,0.0,100,99.99,,,-99.99,,2013-07-15 08:53:00,
2013-07-15 05:02:00,71.0,71.0,30.08,North,0,0.0,0.0,100,99.99,,,-99.99,,2013-07-15 09:02:00,
2013-07-15 05:11:00,71.0,71.0,30.07,North,0,0.0,0.0,100,99.99,,,-99.99,,2013-07-15 09:11:00,
2013-07-15 05:22:00,71.0,71.0,30.07,ENE,59,0.0,1.0,100,99.99,,,-99.99,,2013-07-15 09:22:00,
2013-07-15 05:32:00,72.0,72.0,30.07,North,0,0.0,0.0,100,99.99,,,-99.99,,2013-07-15 09:32:00,
2013-07-15 05:43:00,72.0,72.0,30.07,North,0,0.0,0.0,100,99.99,,,-99.99,,2013-07-15 09:43:00,
2013-07-15 05:52:00,71.0,71.0,30.07,North,0,0.0,0.0,100,99.99,,,-99.99,,2013-07-15 09:52:00,
2013-07-15 06:02:00,71.0,71.0,30.07,North,0,0.0,0.0,100,99.99,,,-99.99,,2013-07-15 10:02:00,
2013-07-15 06:11:00,71.0,71.0,30.07,North,0,0.0,0.0,100,99.99,,,-99.99,,2013-07-15 10:11:00,
2013-07-15 06:22:00,71.0,71.0,30.07,North,0,0.0,0.0,100,99.99,,,-99.99,,2013-07-15 10:22:00,
2013-07-15 06:32:00,71.0,71.0,30.07,ENE,63,1.0,5.0,100,99.99,,,-99.99,,2013-07-15 10:32:00,
2013-07-15 06:43:00,71.0,71.0,30.07,ENE,62,1.0,4.0,100,99.99,,,-99.99,,2013-07-15 10:43:00,
2013-07-15 06:53:00,71.0,71.0,30.07,NE,42,0.0,1.0,100,99.99,,,-99.99,,2013-07-15 10:53:00,
2013-07-15 07:02:00,71.0,71.0,30.08,North,0,0.0,0.0,100,99.99,,,-99.99,,2013-07-15 11:02:00,
2013-07-15 07:11:00,71.0,71.0,30.09,North,0,0.0,0.0,100,99.99,,,-99.99,,2013-07-15 11:11:00,
2013-07-15 07:22:00,71.0,71.0,30.09,North,0,0.0,0.0,100,99.99,,,-99.99,,2013-07-15 11:22:00,
2013-07-15 07:32:00,71.0,71.0,30.09,North,0,0.0,0.0,100,99.99,,,-99.99,,2013-07-15 11:32:00,
2013-07-15 07:42:00,71.0,71.0,30.09,North,0,0.0,0.0,100,99.99,,,-99.99,,2013-07-15 11:42:00,
2013-07-15 07:52:00,72.0,72.0,30.09,NNE,31,0.0,1.0,100,99.99,,,-99.99,,2013-07-15 11:52:00,
2013-07-15 08:01:00,72.0,72.0,30.10,North,0,0.0,0.0,100,99.99,,,-99.99,,2013-07-15 12:01:00,
2013-07-15 08:11:00,73.0,73.0,30.10,North,0,0.0,0.0,100,99.99,,,-99.99,,2013-07-15 12:11:00,
2013-07-15 08:22:00,73.0,73.0,30.10,North,1,0.0,0.0,100,99.99,,,-99.99,,2013-07-15 12:22:00,
2013-07-15 08:32:00,74.0,74.0,30.09,NNE,20,0.0,2.0,100,99.99,,,-99.99,,2013-07-15 12:32:00,
2013-07-15 08:42:00,74.0,74.0,30.10,NNE,15,1.0,5.0,100,99.99,,,-99.99,,2013-07-15 12:42:00,
2013-07-15 08:52:00,74.0,74.0,30.10,NE,55,3.0,5.0,100,99.99,,,-99.99,,2013-07-15 12:52:00,
2013-07-15 09:01:00,75.0,75.0,30.10,NE,48,3.0,6.0,100,99.99,,,-99.99,,2013-07-15 13:01:00,
2013-07-15 09:11:00,75.0,75.0,30.10,NE,46,4.0,8.0,100,99.99,,,-99.99,,2013-07-15 13:11:00,
2013-07-15 09:22:00,76.0,76.0,30.10,NE,55,2.0,5.0,100,99.99,,,-99.99,,2013-07-15 13:22:00,
2013-07-15 09:33:00,77.0,77.0,30.10,ENE,59,2.0,6.0,100,99.99,,,-99.99,,2013-07-15 13:33:00,
2013-07-15 09:43:00,77.0,77.0,30.11,ESE,110,3.0,7.0,100,99.99,,,-99.99,,2013-07-15 13:43:00,
2013-07-15 10:42:00,83.0,75.0,30.10,NE,53,3.0,7.0,76,99.99,,,-99.99,,2013-07-15 14:42:00,
2013-07-15 11:53:00,85.0,70.0,30.11,ESE,120,4.0,8.0,61,99.99,,,-99.99,,2013-07-15 15:53:00,
2013-07-15 12:33:00,86.0,72.0,30.09,SE,136,3.0,9.0,63,99.99,,,-99.99,,2013-07-15 16:33:00,
2013-07-15 13:36:00,87.0,71.0,30.08,NE,52,4.0,8.0,59,99.99,,,-99.99,,2013-07-15 17:36:00,
2013-07-15 13:48:00,87.0,71.0,30.08,North,359,6.0,10.0,60,99.99,,,-99.99,,2013-07-15 17:48:00,
2013-07-15 13:55:00,87.0,71.0,30.07,NNE,13,6.0,10.0,60,99.99,,,-99.99,,2013-07-15 17:55:00,
2013-07-15 14:17:00,86.0,73.0,30.08,ENE,59,8.0,17.0,66,99.99,,,-99.99,,2013-07-15 18:17:00,
2013-07-15 15:47:00,86.0,73.0,30.05,North,11,6.0,9.0,65,99.99,,,-99.99,,2013-07-15 19:47:00,
2013-07-15 15:56:00,86.0,73.0,30.05,North,4,6.0,10.0,65,99.99,,,-99.99,,2013-07-15 19:56:00,
2013-07-15 16:37:00,84.0,72.0,30.04,ENE,63,4.0,9.0,68,99.99,,,-99.99,,2013-07-15 20:37:00,
2013-07-15 16:43:00,84.0,73.0,30.04,NE,45,5.0,10.0,69,99.99,,,-99.99,,2013-07-15 20:43:00,
2013-07-15 17:23:00,83.0,72.0,30.03,NE,55,2.0,6.0,70,99.99,,,-99.99,,2013-07-15 21:23:00,
2013-07-15 17:56:00,82.0,72.0,30.03,NE,56,4.0,7.0,73,99.99,,,-99.99,,2013-07-15 21:56:00,
2013-07-15 18:03:00,80.0,72.0,30.03,NE,49,5.0,12.0,78,99.99,,,-99.99,,2013-07-15 22:03:00,
2013-07-15 18:54:00,77.0,77.0,30.04,South,170,7.0,11.0,99,99.99,,,-99.99,,2013-07-15 22:54:00,
2013-07-15 19:06:00,75.0,74.0,30.04,South,190,7.0,11.0,97,99.99,,,-99.99,,2013-07-15 23:06:00,
2013-07-15 19:13:00,75.0,75.0,30.05,NNE,30,6.0,12.0,99,99.99,,,-99.99,,2013-07-15 23:13:00,
2013-07-15 19:28:00,74.0,74.0,30.05,SW,222,4.0,6.0,100,99.99,,,-99.99,,2013-07-15 23:28:00,
2013-07-15 19:46:00,74.0,74.0,30.04,SSW,211,1.0,2.0,100,99.99,,,-99.99,,2013-07-15 23:46:00,
2013-07-15 19:53:00,75.0,75.0,30.05,North,0,0.0,0.0,100,99.99,,,-99.99,,2013-07-15 23:53:00,
2013-07-15 20:03:00,75.0,75.0,30.05,North,0,0.0,0.0,100,99.99,,,-99.99,,2013-07-16 00:03:00,
2013-07-15 20:15:00,75.0,75.0,30.04,North,0,0.0,0.0,100,99.99,,,-99.99,,2013-07-16 00:15:00,
2013-07-15 20:26:00,75.0,75.0,30.04,North,0,0.0,0.0,100,99.99,,,-99.99,,2013-07-16 00:26:00,
2013-07-15 20:33:00,75.0,75.0,30.05,North,0,0.0,0.0,100,99.99,,,-99.99,,2013-07-16 00:33:00,
2013-07-15 20:53:00,74.0,74.0,30.05,East,101,2.0,4.0,100,99.99,,,-99.99,,2013-07-16 00:53:00,
2013-07-15 21:08:00,74.0,74.0,30.06,ESE,105,2.0,3.0,100,99.99,,,-99.99,,2013-07-16 01:08:00,
2013-07-15 21:15:00,74.0,74.0,30.06,ESE,107,0.0,1.0,100,99.99,,,-99.99,,2013-07-16 01:15:00,
2013-07-15 23:47:00,74.0,74.0,30.11,ESE,117,2.0,4.0,100,99.99,,,-99.99,,2013-07-16 03:47:00,